createdAt,value
2022-12-02T00:01:28.649Z,10.70
2022-12-02T00:03:57.235Z,10.70
2022-12-02T00:06:32.602Z,10.70
2022-12-02T00:09:26.956Z,10.70
2022-12-02T00:11:54.230Z,10.80
2022-12-02T00:14:24.323Z,10.70
2022-12-02T00:16:51.676Z,10.70
2022-12-02T00:19:19.239Z,10.70
2022-12-02T00:21:47.280Z,10.70
2022-12-02T00:24:14.215Z,10.70
2022-12-02T00:26:41.192Z,10.70
2022-12-02T00:29:08.190Z,10.70
2022-12-02T00:31:35.550Z,10.70
2022-12-02T00:34:03.095Z,10.80
2022-12-02T00:36:30.935Z,10.80
2022-12-02T00:38:57.962Z,10.70
2022-12-02T00:41:25.210Z,10.70
2022-12-02T00:44:10.883Z,10.70
2022-12-02T00:46:38.628Z,10.70
2022-12-02T00:49:14.556Z,10.80
2022-12-02T00:51:42.623Z,10.80
2022-12-02T00:54:10.721Z,10.80
2022-12-02T00:56:38.445Z,10.80
2022-12-02T00:59:05.892Z,10.80
2022-12-02T01:01:33.687Z,10.80
2022-12-02T01:04:00.625Z,10.90
2022-12-02T01:06:27.780Z,10.90
2022-12-02T01:08:54.651Z,11.00
2022-12-02T01:11:21.496Z,10.90
2022-12-02T01:13:48.455Z,11.00
2022-12-02T01:16:15.527Z,10.90
2022-12-02T01:18:42.432Z,11.00
2022-12-02T01:21:09.355Z,11.00
2022-12-02T01:23:36.421Z,11.00
2022-12-02T01:26:03.408Z,11.00
2022-12-02T01:28:30.381Z,11.00
2022-12-02T01:30:57.284Z,11.00
2022-12-02T01:33:24.145Z,11.00
2022-12-02T01:35:51.030Z,11.10
2022-12-02T01:38:17.873Z,11.00
2022-12-02T01:40:44.986Z,11.10
2022-12-02T01:43:12.979Z,11.10
2022-12-02T01:45:40.506Z,11.10
2022-12-02T01:48:08.647Z,11.10
2022-12-02T01:50:35.685Z,11.00
2022-12-02T01:53:02.890Z,11.10
2022-12-02T01:55:30.082Z,11.00
2022-12-02T01:57:58.745Z,11.00
2022-12-02T02:00:26.811Z,11.00
2022-12-02T02:02:54.110Z,11.00
2022-12-02T02:05:30.536Z,11.00
2022-12-02T02:08:05.762Z,11.00
2022-12-02T02:10:33.721Z,11.10
2022-12-02T02:13:01.655Z,11.10
2022-12-02T02:15:31.656Z,11.00
2022-12-02T02:18:03.545Z,11.00
2022-12-02T02:20:32.415Z,11.00
2022-12-02T02:23:08.163Z,11.00
2022-12-02T02:25:42.012Z,10.90
2022-12-02T02:28:09.543Z,10.90
2022-12-02T02:30:37.641Z,10.90
2022-12-02T02:33:10.590Z,10.90
2022-12-02T02:35:39.397Z,10.90
2022-12-02T02:38:09.489Z,10.80
2022-12-02T02:40:37.318Z,10.80
2022-12-02T02:43:04.820Z,10.90
2022-12-02T02:45:35.427Z,10.90
2022-12-02T02:48:04.289Z,10.90
2022-12-02T02:50:31.600Z,10.90
2022-12-02T02:52:58.686Z,10.90
2022-12-02T02:55:27.108Z,10.90
2022-12-02T02:57:54.572Z,10.90
2022-12-02T03:00:23.057Z,10.90
2022-12-02T03:02:54.824Z,10.80
2022-12-02T03:05:22.851Z,10.80
2022-12-02T03:07:50.503Z,10.80
2022-12-02T03:10:17.747Z,10.80
2022-12-02T03:12:46.931Z,10.80
2022-12-02T03:15:14.494Z,10.80
2022-12-02T03:17:41.647Z,10.80
2022-12-02T03:20:08.931Z,10.80
2022-12-02T03:22:35.795Z,10.80
2022-12-02T03:25:03.867Z,10.70
2022-12-02T03:27:31.111Z,10.70
2022-12-02T03:29:58.491Z,10.70
2022-12-02T03:32:26.685Z,10.60
2022-12-02T03:34:54.123Z,10.60
2022-12-02T03:37:22.938Z,10.60
2022-12-02T03:39:50.497Z,10.60
2022-12-02T03:42:17.969Z,10.60
2022-12-02T03:44:45.082Z,10.60
2022-12-02T03:47:12.184Z,10.50
2022-12-02T03:49:39.215Z,10.50
2022-12-02T03:52:06.367Z,10.50
2022-12-02T03:54:34.065Z,10.50
2022-12-02T03:57:00.990Z,10.50
2022-12-02T03:59:28.635Z,10.50
2022-12-02T04:01:56.011Z,10.50
2022-12-02T04:04:23.303Z,10.50
2022-12-02T04:06:50.429Z,10.50
2022-12-02T04:09:17.369Z,10.50
2022-12-02T04:11:44.461Z,10.50
2022-12-02T04:14:12.212Z,10.50
2022-12-02T04:16:39.094Z,10.50
2022-12-02T04:19:06.284Z,10.50
2022-12-02T04:21:33.211Z,10.50
2022-12-02T04:24:00.096Z,10.50
2022-12-02T04:26:27.136Z,10.50
2022-12-02T04:28:54.767Z,10.50
2022-12-02T04:31:21.890Z,10.50
2022-12-02T04:33:48.764Z,10.50
2022-12-02T04:36:15.627Z,10.60
2022-12-02T04:38:42.563Z,10.50
2022-12-02T04:41:09.431Z,10.60
2022-12-02T04:43:36.323Z,10.60
2022-12-02T04:46:03.344Z,10.60
2022-12-02T04:48:30.342Z,10.60
2022-12-02T04:50:57.204Z,10.60
2022-12-02T04:53:24.303Z,10.60
2022-12-02T04:55:51.303Z,10.60
2022-12-02T04:58:18.247Z,10.60
2022-12-02T05:00:45.205Z,10.60
2022-12-02T05:03:12.211Z,10.70
2022-12-02T05:05:40.229Z,10.70
2022-12-02T05:08:07.189Z,10.80
2022-12-02T05:10:34.130Z,10.80
2022-12-02T05:13:03.037Z,10.80
2022-12-02T05:15:30.010Z,10.90
2022-12-02T05:17:56.897Z,10.90
2022-12-02T05:20:23.821Z,10.90
2022-12-02T05:22:50.762Z,11.00
2022-12-02T05:25:17.903Z,11.00
2022-12-02T05:27:44.834Z,11.00
2022-12-02T05:30:12.697Z,11.00
2022-12-02T05:32:39.693Z,11.00
2022-12-02T05:35:06.907Z,11.00
2022-12-02T05:37:33.825Z,11.00
2022-12-02T05:40:02.790Z,11.00
2022-12-02T05:42:29.730Z,11.10
2022-12-02T05:45:01.718Z,11.10
2022-12-02T05:47:32.664Z,11.10
2022-12-02T05:50:01.145Z,11.10
2022-12-02T05:52:29.499Z,11.10
2022-12-02T05:54:59.887Z,11.10
2022-12-02T05:57:30.216Z,11.10
2022-12-02T06:00:09.296Z,11.20
2022-12-02T06:02:43.008Z,11.20
2022-12-02T06:05:21.674Z,11.30
2022-12-02T06:07:51.723Z,11.30
2022-12-02T06:10:30.012Z,11.40
2022-12-02T06:13:01.284Z,11.40
2022-12-02T06:15:36.715Z,11.50
2022-12-02T06:18:33.064Z,11.50
2022-12-02T06:21:01.778Z,11.60
2022-12-02T06:23:31.531Z,11.60
2022-12-02T06:25:59.479Z,11.70
2022-12-02T06:28:30.728Z,11.70
2022-12-02T06:31:10.038Z,11.70
2022-12-02T06:33:39.049Z,11.80
2022-12-02T06:36:12.914Z,11.80
2022-12-02T06:38:56.931Z,11.80
2022-12-02T06:41:26.708Z,11.90
2022-12-02T06:44:21.377Z,11.90
2022-12-02T06:46:48.271Z,12.00
2022-12-02T06:49:25.522Z,12.00
2022-12-02T06:51:59.319Z,12.00
2022-12-02T06:54:31.635Z,12.00
2022-12-02T06:57:01.260Z,12.00
2022-12-02T06:59:28.355Z,12.00
2022-12-02T07:01:59.347Z,12.00
2022-12-02T07:04:40.664Z,12.00
2022-12-02T07:07:27.781Z,12.00
2022-12-02T07:10:01.497Z,12.00
2022-12-02T07:12:33.728Z,12.00
2022-12-02T07:15:16.906Z,12.00
2022-12-02T07:17:45.099Z,12.00
2022-12-02T07:20:32.416Z,11.90
2022-12-02T07:23:02.782Z,12.00
2022-12-02T07:25:44.285Z,12.00
2022-12-02T07:28:16.916Z,11.90
2022-12-02T07:30:44.080Z,12.00
2022-12-02T07:33:11.116Z,12.00
2022-12-02T07:35:38.005Z,12.00
2022-12-02T07:38:04.931Z,12.00
2022-12-02T07:40:31.878Z,12.00
2022-12-02T07:42:58.801Z,12.00
2022-12-02T07:45:25.762Z,11.90
2022-12-02T07:47:52.774Z,11.90
2022-12-02T07:50:19.808Z,11.90
2022-12-02T07:52:47.343Z,11.90
2022-12-02T07:55:14.228Z,11.90
2022-12-02T07:57:41.245Z,11.90
2022-12-02T08:00:10.445Z,11.90
2022-12-02T08:02:37.514Z,11.80
2022-12-02T08:05:04.998Z,11.80
2022-12-02T08:07:32.099Z,11.80
2022-12-02T08:09:59.258Z,11.90
2022-12-02T08:12:26.173Z,11.80
2022-12-02T08:14:53.401Z,11.80
2022-12-02T08:17:20.717Z,11.80
2022-12-02T08:19:47.642Z,11.80
2022-12-02T08:22:14.565Z,11.80
2022-12-02T08:24:41.599Z,11.80
2022-12-02T08:27:08.539Z,11.80
2022-12-02T08:29:35.522Z,11.80
2022-12-02T08:32:03.192Z,11.80
2022-12-02T08:34:30.129Z,11.80
2022-12-02T08:36:57.062Z,11.70
2022-12-02T08:39:24.080Z,11.70
2022-12-02T08:41:51.006Z,11.70
2022-12-02T08:44:18.252Z,11.60
2022-12-02T08:46:50.952Z,11.60
2022-12-02T08:49:21.046Z,11.60
2022-12-02T08:51:47.989Z,11.50
2022-12-02T08:54:15.746Z,11.50
2022-12-02T08:56:43.625Z,11.50
2022-12-02T08:59:10.663Z,11.50
2022-12-02T09:01:37.637Z,11.50
2022-12-02T09:04:04.773Z,11.50
2022-12-02T09:06:35.861Z,11.50
2022-12-02T09:09:04.536Z,11.50
2022-12-02T09:11:31.711Z,11.50
2022-12-02T09:13:58.675Z,11.50
2022-12-02T09:16:25.621Z,11.40
2022-12-02T09:18:55.891Z,11.40
2022-12-02T09:21:23.637Z,11.40
2022-12-02T09:23:51.158Z,11.40
2022-12-02T09:26:19.172Z,11.40
2022-12-02T09:28:47.483Z,11.30
2022-12-02T09:31:15.198Z,11.30
2022-12-02T09:33:42.159Z,11.30
2022-12-02T09:36:09.281Z,11.30
2022-12-02T09:38:36.351Z,11.30
2022-12-02T09:41:04.272Z,11.30
2022-12-02T09:43:31.856Z,11.40
2022-12-02T09:46:00.175Z,11.30
2022-12-02T09:48:29.343Z,11.30
2022-12-02T09:50:58.102Z,11.30
2022-12-02T09:53:29.896Z,11.30
2022-12-02T09:55:56.804Z,11.30
2022-12-02T09:58:23.800Z,11.20
2022-12-02T10:00:54.207Z,11.30
2022-12-02T10:03:27.967Z,11.30
2022-12-02T10:05:56.443Z,11.20
2022-12-02T10:08:28.512Z,11.30
2022-12-02T10:10:59.425Z,11.30
2022-12-02T10:13:27.794Z,11.20
2022-12-02T10:15:54.945Z,11.20
2022-12-02T10:18:27.152Z,11.20
2022-12-02T10:20:54.105Z,11.10
2022-12-02T10:23:24.104Z,11.20
2022-12-02T10:26:15.940Z,11.10
2022-12-02T10:28:44.321Z,11.10
2022-12-02T10:31:30.806Z,11.10
2022-12-02T10:34:00.522Z,11.10
2022-12-02T10:36:43.908Z,11.00
2022-12-02T10:39:22.855Z,11.00
2022-12-02T10:42:07.958Z,11.00
2022-12-02T10:44:36.283Z,11.00
2022-12-02T10:47:25.462Z,10.90
2022-12-02T10:49:58.418Z,10.90
2022-12-02T10:52:34.975Z,10.90
2022-12-02T10:55:03.647Z,10.80
2022-12-02T10:57:33.345Z,10.80
2022-12-02T11:00:05.394Z,10.70
2022-12-02T11:02:45.655Z,10.70
2022-12-02T11:05:17.790Z,10.60
2022-12-02T11:07:55.982Z,10.60
2022-12-02T11:10:25.656Z,10.50
2022-12-02T11:12:52.764Z,10.50
2022-12-02T11:15:51.793Z,10.50
2022-12-02T11:18:28.258Z,10.50
2022-12-02T11:21:16.060Z,10.50
2022-12-02T11:23:43.000Z,10.50
2022-12-02T11:26:10.976Z,10.50
2022-12-02T11:28:48.767Z,10.50
2022-12-02T11:31:19.206Z,10.40
2022-12-02T11:33:54.112Z,10.40
2022-12-02T11:36:26.414Z,10.30
2022-12-02T11:38:53.524Z,10.30
2022-12-02T11:41:29.506Z,10.20
2022-12-02T11:44:18.379Z,10.20
2022-12-02T11:46:51.770Z,10.20
2022-12-02T11:49:31.106Z,10.10
2022-12-02T11:52:25.225Z,10.10
2022-12-02T11:54:55.488Z,10.10
2022-12-02T11:57:31.918Z,10.00
2022-12-02T11:59:59.197Z,10.10
2022-12-02T12:02:26.394Z,10.10
2022-12-02T12:05:06.016Z,10.20
2022-12-02T12:07:43.597Z,10.10
2022-12-02T12:10:35.539Z,10.10
2022-12-02T12:13:22.598Z,10.10
2022-12-02T12:16:00.686Z,10.10
2022-12-02T12:18:49.121Z,10.10
2022-12-02T12:21:31.430Z,10.00
2022-12-02T12:24:26.572Z,10.10
2022-12-02T12:26:54.715Z,10.00
2022-12-02T12:29:24.238Z,10.10
2022-12-02T12:31:51.511Z,10.10
2022-12-02T12:34:18.612Z,10.10
2022-12-02T12:36:47.031Z,10.10
2022-12-02T12:39:15.678Z,10.10
2022-12-02T12:42:00.705Z,10.10
2022-12-02T12:44:31.035Z,10.00
2022-12-02T12:47:04.822Z,10.00
2022-12-02T12:49:33.184Z,10.00
2022-12-02T12:52:01.039Z,9.90
2022-12-02T12:54:28.001Z,9.90
2022-12-02T12:56:54.961Z,9.90
2022-12-02T12:59:21.914Z,9.80
2022-12-02T13:01:49.052Z,9.80
2022-12-02T13:04:16.014Z,9.70
2022-12-02T13:06:43.543Z,9.70
2022-12-02T13:09:11.668Z,9.60
2022-12-02T13:11:38.727Z,9.60
2022-12-02T13:14:05.663Z,9.60
2022-12-02T13:16:33.162Z,9.60
2022-12-02T13:19:00.256Z,9.60
2022-12-02T13:21:27.161Z,9.60
2022-12-02T13:23:55.236Z,9.60
2022-12-02T13:26:22.147Z,9.60
2022-12-02T13:28:52.902Z,9.60
2022-12-02T13:31:20.288Z,9.60
2022-12-02T13:33:47.624Z,9.50
2022-12-02T13:36:14.627Z,9.40
2022-12-02T13:38:41.612Z,9.40
2022-12-02T13:41:08.825Z,9.40
2022-12-02T13:43:35.776Z,9.30
2022-12-02T13:46:03.352Z,9.20
2022-12-02T13:48:30.413Z,9.20
2022-12-02T13:50:57.464Z,9.20
2022-12-02T13:53:24.435Z,9.10
2022-12-02T13:55:51.559Z,9.10
2022-12-02T13:58:18.609Z,9.10
2022-12-02T14:00:45.752Z,9.00
2022-12-02T14:03:12.811Z,9.00
2022-12-02T14:05:40.023Z,8.90
2022-12-02T14:08:07.034Z,8.90
2022-12-02T14:10:34.324Z,8.90
2022-12-02T14:13:01.253Z,8.90
2022-12-02T14:15:28.233Z,8.90
2022-12-02T14:17:55.349Z,8.80
2022-12-02T14:20:22.336Z,8.80
2022-12-02T14:22:49.192Z,8.80
2022-12-02T14:25:16.153Z,8.70
2022-12-02T14:27:43.106Z,8.70
2022-12-02T14:30:10.689Z,8.70
2022-12-02T14:32:40.477Z,8.70
2022-12-02T14:35:08.063Z,8.70
2022-12-02T14:37:34.997Z,8.70
2022-12-02T14:40:04.585Z,8.70
2022-12-02T14:42:31.716Z,8.70
2022-12-02T14:44:58.682Z,8.70
2022-12-02T14:47:25.693Z,8.70
2022-12-02T14:49:52.760Z,8.70
2022-12-02T14:52:19.756Z,8.70
2022-12-02T14:54:47.563Z,8.70
2022-12-02T14:57:15.841Z,8.70
2022-12-02T14:59:42.985Z,8.70
2022-12-02T15:02:14.934Z,8.70
2022-12-02T15:04:42.665Z,8.80
2022-12-02T15:07:09.761Z,8.80
2022-12-02T15:09:36.691Z,8.70
2022-12-02T15:12:03.871Z,8.70
2022-12-02T15:14:30.860Z,8.70
2022-12-02T15:16:57.941Z,8.70
2022-12-02T15:19:25.168Z,8.80
2022-12-02T15:21:52.152Z,8.80
2022-12-02T15:24:19.149Z,8.80
2022-12-02T15:26:48.476Z,8.80
2022-12-02T15:29:17.855Z,8.80
2022-12-02T15:31:44.911Z,8.80
2022-12-02T15:34:11.988Z,8.90
2022-12-02T15:36:38.962Z,8.80
2022-12-02T15:39:05.910Z,8.80
2022-12-02T15:41:32.925Z,8.80
2022-12-02T15:43:59.929Z,8.80
2022-12-02T15:46:27.089Z,8.90
2022-12-02T15:48:54.074Z,8.80
2022-12-02T15:51:21.338Z,8.90
2022-12-02T15:53:48.396Z,9.00
2022-12-02T15:56:15.633Z,9.00
2022-12-02T15:58:43.525Z,9.00
2022-12-02T16:01:10.973Z,9.00
2022-12-02T16:03:38.022Z,9.00
2022-12-02T16:06:05.265Z,9.00
2022-12-02T16:08:33.601Z,9.00
2022-12-02T16:11:00.653Z,9.00
2022-12-02T16:13:27.610Z,9.00
2022-12-02T16:15:54.555Z,9.00
2022-12-02T16:18:21.592Z,9.00
2022-12-02T16:20:53.847Z,9.00
2022-12-02T16:23:23.070Z,9.00
2022-12-02T16:25:50.083Z,9.00
2022-12-02T16:28:17.159Z,9.00
2022-12-02T16:30:44.148Z,9.00
2022-12-02T16:33:11.084Z,9.00
2022-12-02T16:35:38.096Z,8.90
2022-12-02T16:38:05.291Z,8.90
2022-12-02T16:40:32.384Z,8.90
2022-12-02T16:42:59.356Z,8.90
2022-12-02T16:45:26.596Z,8.80
2022-12-02T16:47:53.650Z,8.80
2022-12-02T16:50:20.599Z,8.80
2022-12-02T16:52:47.550Z,8.70
2022-12-02T16:55:14.654Z,8.70
2022-12-02T16:57:41.710Z,8.70
2022-12-02T17:00:09.628Z,8.70
2022-12-02T17:02:37.018Z,8.70
2022-12-02T17:05:04.409Z,8.70
2022-12-02T17:07:31.532Z,8.70
2022-12-02T17:09:58.775Z,8.70
2022-12-02T17:12:25.780Z,8.70
2022-12-02T17:14:55.211Z,8.70
2022-12-02T17:17:44.808Z,8.70
2022-12-02T17:20:10.584Z,8.70
2022-12-02T17:22:38.136Z,8.70
2022-12-02T17:25:05.984Z,8.70
2022-12-02T17:27:33.036Z,8.70
2022-12-02T17:29:59.907Z,8.70
2022-12-02T17:32:26.883Z,8.70
2022-12-02T17:34:54.024Z,8.70
2022-12-02T17:37:21.239Z,8.70
2022-12-02T17:39:48.136Z,8.70
2022-12-02T17:42:15.260Z,8.70
2022-12-02T17:44:42.187Z,8.80
2022-12-02T17:47:09.659Z,8.70
2022-12-02T17:49:36.628Z,8.70
2022-12-02T17:52:19.584Z,8.70
2022-12-02T17:54:47.872Z,8.70
2022-12-02T17:57:14.838Z,8.70
2022-12-02T17:59:41.724Z,8.70
2022-12-02T18:02:12.176Z,8.80
2022-12-02T18:04:44.177Z,8.70
2022-12-02T18:07:12.204Z,8.70
2022-12-02T18:09:40.517Z,8.70
2022-12-02T18:12:08.468Z,8.70
2022-12-02T18:14:35.962Z,8.70
2022-12-02T18:17:03.028Z,8.70
2022-12-02T18:19:30.026Z,8.70
2022-12-02T18:21:57.809Z,8.70
2022-12-02T18:24:24.740Z,8.70
2022-12-02T18:26:51.654Z,8.70
2022-12-02T18:29:18.527Z,8.70
2022-12-02T18:31:45.409Z,8.70
2022-12-02T18:34:12.307Z,8.70
2022-12-02T18:36:39.166Z,8.70
2022-12-02T18:39:06.102Z,8.70
2022-12-02T18:41:33.219Z,8.70
2022-12-02T18:44:00.131Z,8.70
2022-12-02T18:46:27.109Z,8.70
2022-12-02T18:48:54.272Z,8.60
2022-12-02T18:51:21.318Z,8.60
2022-12-02T18:53:48.254Z,8.60
2022-12-02T18:56:20.466Z,8.60
2022-12-02T18:58:50.940Z,8.60
2022-12-02T19:01:18.035Z,8.60
2022-12-02T19:03:45.288Z,8.60
2022-12-02T19:06:12.247Z,8.60
2022-12-02T19:08:39.295Z,8.60
2022-12-02T19:11:06.150Z,8.60
2022-12-02T19:13:33.163Z,8.60
2022-12-02T19:16:00.229Z,8.60
2022-12-02T19:18:27.216Z,8.60
2022-12-02T19:20:54.161Z,8.60
2022-12-02T19:23:21.063Z,8.60
2022-12-02T19:25:50.374Z,8.60
2022-12-02T19:28:17.617Z,8.60
2022-12-02T19:30:44.612Z,8.60
2022-12-02T19:33:11.530Z,8.60
2022-12-02T19:35:38.541Z,8.60
2022-12-02T19:38:09.055Z,8.60
2022-12-02T19:40:44.659Z,8.50
2022-12-02T19:43:13.550Z,8.60
2022-12-02T19:45:40.485Z,8.50
2022-12-02T19:48:07.546Z,8.50
2022-12-02T19:50:34.431Z,8.60
2022-12-02T19:53:01.612Z,8.50
2022-12-02T19:55:28.580Z,8.50
2022-12-02T19:57:55.414Z,8.60
2022-12-02T20:00:22.368Z,8.60
2022-12-02T20:02:49.636Z,8.50
2022-12-02T20:05:18.801Z,8.50
2022-12-02T20:07:45.787Z,8.60
2022-12-02T20:10:13.644Z,8.50
2022-12-02T20:12:40.652Z,8.60
2022-12-02T20:15:08.475Z,8.60
2022-12-02T20:17:35.470Z,8.60
2022-12-02T20:20:04.095Z,8.60
2022-12-02T20:22:31.020Z,8.60
2022-12-02T20:24:58.305Z,8.60
2022-12-02T20:27:25.280Z,8.60
2022-12-02T20:29:52.169Z,8.60
2022-12-02T20:32:19.253Z,8.60
2022-12-02T20:34:46.146Z,8.60
2022-12-02T20:37:13.047Z,8.60
2022-12-02T20:39:40.337Z,8.60
2022-12-02T20:42:07.357Z,8.60
2022-12-02T20:44:34.482Z,8.60
2022-12-02T20:47:01.529Z,8.60
2022-12-02T20:49:28.575Z,8.60
2022-12-02T20:51:55.595Z,8.60
2022-12-02T20:54:23.086Z,8.50
2022-12-02T20:56:49.961Z,8.60
2022-12-02T20:59:16.896Z,8.60
2022-12-02T21:01:44.672Z,8.50
2022-12-02T21:04:11.542Z,8.50
2022-12-02T21:06:38.448Z,8.60
2022-12-02T21:09:05.802Z,8.50
2022-12-02T21:11:32.670Z,8.50
2022-12-02T21:13:59.579Z,8.50
2022-12-02T21:16:26.477Z,8.60
2022-12-02T21:18:53.356Z,8.50
2022-12-02T21:21:20.296Z,8.60
2022-12-02T21:23:47.159Z,8.50
2022-12-02T21:26:14.048Z,8.50
2022-12-02T21:28:41.023Z,8.50
2022-12-02T21:31:07.977Z,8.50
2022-12-02T21:33:35.143Z,8.50
2022-12-02T21:36:02.038Z,8.50
2022-12-02T21:38:28.914Z,8.50
2022-12-02T21:40:55.832Z,8.50
2022-12-02T21:43:22.779Z,8.50
2022-12-02T21:45:49.708Z,8.50
2022-12-02T21:48:16.594Z,8.50
2022-12-02T21:50:43.509Z,8.50
2022-12-02T21:53:10.642Z,8.50
2022-12-02T21:55:37.722Z,8.50
2022-12-02T21:58:05.255Z,8.50
2022-12-02T22:00:32.622Z,8.50
2022-12-02T22:02:59.626Z,8.50
2022-12-02T22:05:26.516Z,8.50
2022-12-02T22:07:53.707Z,8.50
2022-12-02T22:10:25.337Z,8.40
2022-12-02T22:12:53.097Z,8.50
2022-12-02T22:15:22.210Z,8.50
2022-12-02T22:17:49.226Z,8.50
2022-12-02T22:20:18.203Z,8.40
2022-12-02T22:22:45.206Z,8.40
2022-12-02T22:25:12.443Z,8.40
2022-12-02T22:27:39.699Z,8.40
2022-12-02T22:30:08.091Z,8.40
2022-12-02T22:32:35.365Z,8.40
2022-12-02T22:35:03.935Z,8.40
2022-12-02T22:37:33.750Z,8.40
2022-12-02T22:40:00.702Z,8.40
2022-12-02T22:42:27.667Z,8.40
2022-12-02T22:44:57.879Z,8.40
2022-12-02T22:47:28.295Z,8.40
2022-12-02T22:49:55.507Z,8.40
2022-12-02T22:52:22.375Z,8.40
2022-12-02T22:54:49.278Z,8.30
2022-12-02T22:57:16.791Z,8.30
2022-12-02T22:59:43.664Z,8.40
2022-12-02T23:02:16.843Z,8.40
2022-12-02T23:04:44.241Z,8.40
2022-12-02T23:07:11.201Z,8.40
2022-12-02T23:09:38.110Z,8.40
2022-12-02T23:12:05.243Z,8.40
2022-12-02T23:14:32.199Z,8.40
2022-12-02T23:16:59.915Z,8.40
2022-12-02T23:19:26.900Z,8.40
2022-12-02T23:21:53.796Z,8.40
2022-12-02T23:24:21.257Z,8.40
2022-12-02T23:26:48.794Z,8.40
2022-12-02T23:29:15.705Z,8.40
2022-12-02T23:31:42.544Z,8.30
2022-12-02T23:34:10.158Z,8.30
2022-12-02T23:36:37.034Z,8.30
2022-12-02T23:39:04.212Z,8.30
2022-12-02T23:41:32.155Z,8.30
2022-12-02T23:43:59.080Z,8.30
2022-12-02T23:46:25.999Z,8.20
2022-12-02T23:48:52.899Z,8.30
2022-12-02T23:51:25.349Z,8.30
2022-12-02T23:53:53.879Z,8.20
2022-12-02T23:56:21.773Z,8.30
2022-12-02T23:58:48.680Z,8.20
